createdAt,value
2023-03-06T00:00:59.956Z,1.60
2023-03-06T00:03:28.691Z,1.70
2023-03-06T00:05:58.648Z,1.70
2023-03-06T00:08:29.448Z,1.70
2023-03-06T00:11:00.739Z,1.70
2023-03-06T00:13:30.622Z,1.70
2023-03-06T00:16:01.239Z,1.70
2023-03-06T00:18:29.281Z,1.70
2023-03-06T00:20:57.296Z,1.60
2023-03-06T00:23:25.917Z,1.60
2023-03-06T00:25:53.990Z,1.60
2023-03-06T00:28:23.422Z,1.70
2023-03-06T00:30:51.645Z,1.60
2023-03-06T00:33:19.612Z,1.60
2023-03-06T00:35:47.558Z,1.60
2023-03-06T00:38:15.629Z,1.50
2023-03-06T00:40:43.660Z,1.40
2023-03-06T00:43:11.900Z,1.40
2023-03-06T00:45:41.208Z,1.40
2023-03-06T00:48:10.123Z,1.30
2023-03-06T00:50:38.077Z,1.40
2023-03-06T00:53:06.032Z,1.40
2023-03-06T00:55:34.016Z,1.40
2023-03-06T00:58:01.980Z,1.40
2023-03-06T01:00:29.973Z,1.40
2023-03-06T01:02:59.278Z,1.50
2023-03-06T01:05:27.299Z,1.50
2023-03-06T01:07:55.243Z,1.50
2023-03-06T01:10:23.566Z,1.50
2023-03-06T01:12:51.611Z,1.60
2023-03-06T01:15:19.931Z,1.60
2023-03-06T01:17:48.368Z,1.60
2023-03-06T01:20:19.956Z,1.60
2023-03-06T01:22:47.878Z,1.60
2023-03-06T01:25:15.854Z,1.60
2023-03-06T01:27:44.152Z,1.60
2023-03-06T01:30:13.747Z,1.60
2023-03-06T01:32:41.736Z,1.60
2023-03-06T01:35:11.178Z,1.60
2023-03-06T01:37:40.972Z,1.60
2023-03-06T01:40:13.291Z,1.60
2023-03-06T01:42:41.835Z,1.60
2023-03-06T01:46:19.276Z,1.70
2023-03-06T01:48:50.966Z,1.70
2023-03-06T01:51:19.281Z,1.70
2023-03-06T01:53:51.540Z,1.80
2023-03-06T01:56:21.381Z,1.80
2023-03-06T01:58:51.249Z,1.90
2023-03-06T02:01:20.836Z,1.90
2023-03-06T02:03:51.029Z,2.00
2023-03-06T02:06:21.794Z,2.00
2023-03-06T02:08:53.871Z,2.00
2023-03-06T02:11:25.507Z,1.90
2023-03-06T02:13:55.870Z,1.90
2023-03-06T02:16:29.178Z,2.00
2023-03-06T02:19:01.226Z,2.00
2023-03-06T02:21:35.381Z,2.00
2023-03-06T02:24:22.169Z,1.90
2023-03-06T02:26:54.008Z,1.90
2023-03-06T02:29:27.456Z,1.90
2023-03-06T02:31:57.547Z,1.90
2023-03-06T02:34:52.818Z,1.90
2023-03-06T02:37:22.598Z,1.90
2023-03-06T02:39:59.391Z,1.90
2023-03-06T02:42:29.768Z,1.90
2023-03-06T02:45:02.173Z,1.90
2023-03-06T02:47:30.374Z,1.90
2023-03-06T02:49:58.274Z,2.00
2023-03-06T02:52:26.206Z,2.00
2023-03-06T02:54:54.092Z,2.00
2023-03-06T02:57:22.321Z,2.00
2023-03-06T02:59:51.605Z,2.00
2023-03-06T03:02:19.908Z,2.00
2023-03-06T03:04:47.916Z,2.00
2023-03-06T03:07:16.358Z,1.90
2023-03-06T03:09:44.962Z,1.90
2023-03-06T03:12:13.944Z,1.90
2023-03-06T03:14:41.853Z,1.90
2023-03-06T03:17:11.230Z,1.90
2023-03-06T03:19:39.686Z,1.90
2023-03-06T03:22:08.172Z,1.90
2023-03-06T03:24:36.237Z,1.90
2023-03-06T03:27:05.264Z,1.90
2023-03-06T03:29:33.781Z,1.90
2023-03-06T03:32:02.006Z,1.90
2023-03-06T03:34:31.304Z,1.80
2023-03-06T03:36:59.291Z,1.90
2023-03-06T03:39:27.678Z,1.80
2023-03-06T03:41:55.685Z,1.80
2023-03-06T03:44:24.252Z,1.80
2023-03-06T03:46:52.417Z,1.80
2023-03-06T03:49:23.636Z,1.80
2023-03-06T03:51:53.670Z,1.80
2023-03-06T03:54:23.299Z,1.80
2023-03-06T03:56:53.985Z,1.80
2023-03-06T03:59:29.025Z,1.90
2023-03-06T04:02:08.101Z,1.90
2023-03-06T04:04:42.883Z,2.00
2023-03-06T04:07:13.306Z,2.00
2023-03-06T04:09:42.359Z,1.90
2023-03-06T04:12:10.562Z,1.90
2023-03-06T04:14:39.127Z,1.80
2023-03-06T04:17:07.595Z,1.80
2023-03-06T04:19:35.570Z,1.80
2023-03-06T04:22:03.505Z,1.90
2023-03-06T04:24:35.050Z,1.90
2023-03-06T04:27:03.556Z,1.90
2023-03-06T04:29:32.147Z,1.90
2023-03-06T04:32:00.207Z,1.80
2023-03-06T04:34:28.271Z,1.80
2023-03-06T04:36:56.250Z,1.80
2023-03-06T04:39:24.594Z,1.80
2023-03-06T04:41:53.970Z,1.80
2023-03-06T04:44:21.908Z,1.80
2023-03-06T04:46:49.852Z,1.80
2023-03-06T04:49:17.881Z,1.80
2023-03-06T04:51:45.773Z,1.90
2023-03-06T04:54:13.683Z,1.90
2023-03-06T04:56:41.791Z,2.00
2023-03-06T04:59:11.094Z,2.00
2023-03-06T05:01:39.173Z,2.00
2023-03-06T05:04:07.384Z,2.00
2023-03-06T05:06:35.383Z,2.10
2023-03-06T05:09:03.316Z,2.20
2023-03-06T05:11:31.311Z,2.20
2023-03-06T05:13:59.189Z,2.20
2023-03-06T05:16:28.538Z,2.20
2023-03-06T05:18:56.447Z,2.20
2023-03-06T05:21:24.401Z,2.10
2023-03-06T05:23:52.339Z,2.10
2023-03-06T05:26:21.109Z,2.10
2023-03-06T05:28:49.024Z,2.10
2023-03-06T05:31:17.199Z,2.10
2023-03-06T05:33:46.454Z,2.10
2023-03-06T05:36:14.378Z,2.10
2023-03-06T05:38:42.294Z,2.00
2023-03-06T05:41:13.099Z,2.00
2023-03-06T05:43:41.244Z,2.00
2023-03-06T05:46:11.378Z,2.00
2023-03-06T05:48:39.448Z,1.90
2023-03-06T05:51:08.756Z,1.90
2023-03-06T05:53:36.754Z,1.90
2023-03-06T05:56:08.805Z,1.90
2023-03-06T05:58:37.129Z,1.90
2023-03-06T06:01:11.437Z,2.00
2023-03-06T06:03:39.900Z,2.00
2023-03-06T06:06:11.620Z,2.00
2023-03-06T06:08:39.901Z,2.10
2023-03-06T06:11:09.804Z,2.10
2023-03-06T06:13:38.868Z,2.10
2023-03-06T06:16:11.773Z,2.10
2023-03-06T06:18:41.405Z,2.10
2023-03-06T06:21:14.406Z,2.10
2023-03-06T06:23:42.731Z,2.10
2023-03-06T06:26:11.921Z,2.10
2023-03-06T06:28:39.906Z,2.10
2023-03-06T06:31:12.231Z,2.10
2023-03-06T06:33:40.296Z,2.10
2023-03-06T06:36:18.569Z,2.10
2023-03-06T06:38:46.532Z,2.10
2023-03-06T06:44:08.550Z,2.00
2023-03-06T06:47:20.949Z,2.00
2023-03-06T06:49:25.342Z,2.00
2023-03-06T06:51:54.636Z,2.00
2023-03-06T06:54:22.612Z,2.00
2023-03-06T06:56:50.543Z,2.00
2023-03-06T06:59:18.514Z,2.00
2023-03-06T07:01:46.523Z,1.90
2023-03-06T07:04:15.430Z,1.90
2023-03-06T07:06:43.984Z,1.90
2023-03-06T07:09:14.784Z,1.90
2023-03-06T07:11:43.686Z,1.90
2023-03-06T07:14:11.643Z,1.90
2023-03-06T07:16:39.684Z,1.90
2023-03-06T07:19:08.145Z,1.90
2023-03-06T07:21:36.194Z,1.90
2023-03-06T07:24:04.716Z,1.80
2023-03-06T07:26:34.883Z,1.80
2023-03-06T07:29:03.486Z,1.80
2023-03-06T07:31:31.992Z,1.80
2023-03-06T07:34:00.227Z,1.80
2023-03-06T07:36:28.849Z,1.80
2023-03-06T07:38:56.855Z,1.80
2023-03-06T07:41:24.943Z,1.90
2023-03-06T07:43:54.190Z,1.90
2023-03-06T07:46:22.187Z,1.90
2023-03-06T07:48:50.196Z,1.90
2023-03-06T07:51:22.364Z,1.90
2023-03-06T07:53:51.166Z,2.00
2023-03-06T07:56:19.195Z,2.00
2023-03-06T07:58:48.497Z,1.90
2023-03-06T08:01:20.649Z,1.90
2023-03-06T08:03:50.025Z,2.00
2023-03-06T08:06:21.072Z,1.90
2023-03-06T08:08:50.766Z,1.90
2023-03-06T08:11:21.849Z,1.90
2023-03-06T08:13:52.609Z,1.80
2023-03-06T08:16:24.065Z,1.90
2023-03-06T08:18:52.277Z,1.90
2023-03-06T08:21:23.525Z,1.90
2023-03-06T08:23:52.542Z,2.00
2023-03-06T08:26:24.045Z,2.00
2023-03-06T08:28:52.308Z,2.00
2023-03-06T08:31:29.015Z,2.00
2023-03-06T08:34:00.295Z,2.10
2023-03-06T08:36:28.617Z,2.20
2023-03-06T08:38:57.540Z,2.20
2023-03-06T08:41:25.886Z,2.20
2023-03-06T08:43:54.471Z,2.30
2023-03-06T08:46:26.375Z,2.40
2023-03-06T08:48:55.931Z,2.40
2023-03-06T08:51:24.920Z,2.50
2023-03-06T08:53:53.674Z,2.50
2023-03-06T08:56:25.042Z,2.50
2023-03-06T08:58:53.979Z,2.50
2023-03-06T09:01:26.670Z,2.60
2023-03-06T09:03:58.043Z,2.60
2023-03-06T09:06:28.464Z,2.60
2023-03-06T09:08:57.002Z,2.60
2023-03-06T09:11:27.985Z,2.60
2023-03-06T09:13:57.360Z,2.60
2023-03-06T09:16:27.190Z,2.50
2023-03-06T09:18:55.463Z,2.50
2023-03-06T09:21:25.060Z,2.60
2023-03-06T09:23:53.496Z,2.60
2023-03-06T09:26:22.445Z,2.60
2023-03-06T09:28:51.601Z,2.60
2023-03-06T09:31:21.676Z,2.60
2023-03-06T09:33:51.116Z,2.60
2023-03-06T09:36:22.192Z,2.60
2023-03-06T09:38:51.537Z,2.50
2023-03-06T09:41:29.985Z,2.50
2023-03-06T09:44:06.022Z,2.50
2023-03-06T09:47:00.213Z,2.50
2023-03-06T09:49:47.452Z,2.60
2023-03-06T09:52:32.596Z,2.60
2023-03-06T09:55:11.471Z,2.60
2023-03-06T09:57:51.257Z,2.60
2023-03-06T10:00:27.356Z,2.70
2023-03-06T10:03:08.910Z,2.70
2023-03-06T10:05:43.980Z,2.70
2023-03-06T10:08:24.923Z,2.70
2023-03-06T10:11:02.267Z,2.70
2023-03-06T10:13:39.720Z,2.70
2023-03-06T10:16:26.570Z,2.70
2023-03-06T10:18:57.543Z,2.70
2023-03-06T10:21:43.318Z,2.60
2023-03-06T10:24:26.888Z,2.70
2023-03-06T10:27:03.969Z,2.70
2023-03-06T10:30:02.024Z,2.70
2023-03-06T10:32:48.874Z,2.70
2023-03-06T10:35:22.245Z,2.70
2023-03-06T10:37:51.645Z,2.70
2023-03-06T10:40:23.571Z,2.70
2023-03-06T10:43:01.600Z,2.80
2023-03-06T10:45:49.888Z,2.80
2023-03-06T10:48:23.404Z,2.90
2023-03-06T10:50:53.332Z,2.90
2023-03-06T10:53:29.446Z,2.90
2023-03-06T10:55:59.819Z,3.00
2023-03-06T10:58:30.289Z,3.00
2023-03-06T11:01:08.025Z,3.00
2023-03-06T11:03:37.496Z,2.90
2023-03-06T11:06:17.131Z,3.00
2023-03-06T11:08:46.549Z,3.10
2023-03-06T11:11:36.748Z,3.00
2023-03-06T11:14:17.937Z,3.00
2023-03-06T11:16:53.179Z,3.10
2023-03-06T11:19:27.155Z,3.10
2023-03-06T11:22:05.668Z,3.10
2023-03-06T11:24:43.390Z,3.10
2023-03-06T11:27:24.721Z,3.30
2023-03-06T11:29:56.017Z,3.40
2023-03-06T11:32:29.687Z,3.40
2023-03-06T11:35:03.782Z,3.40
2023-03-06T11:37:46.759Z,3.40
2023-03-06T11:40:24.658Z,3.50
2023-03-06T11:43:07.044Z,3.70
2023-03-06T11:45:43.405Z,3.70
2023-03-06T11:48:25.873Z,3.80
2023-03-06T11:51:00.340Z,4.00
2023-03-06T11:53:35.311Z,4.20
2023-03-06T11:56:24.357Z,4.10
2023-03-06T11:59:10.791Z,4.10
2023-03-06T12:01:44.215Z,4.00
2023-03-06T12:04:38.627Z,4.00
2023-03-06T12:07:22.620Z,4.00
2023-03-06T12:09:58.625Z,4.00
2023-03-06T12:13:08.398Z,4.10
2023-03-06T12:16:02.698Z,4.10
2023-03-06T12:18:48.238Z,4.10
2023-03-06T12:21:31.866Z,4.20
2023-03-06T12:24:17.097Z,4.30
2023-03-06T12:27:10.045Z,4.20
2023-03-06T12:29:59.333Z,4.20
2023-03-06T12:32:49.413Z,4.20
2023-03-06T12:35:44.760Z,4.20
2023-03-06T12:38:44.906Z,4.30
2023-03-06T12:41:29.318Z,4.30
2023-03-06T12:44:31.278Z,4.40
2023-03-06T12:47:05.141Z,4.50
2023-03-06T12:49:38.733Z,4.50
2023-03-06T12:52:11.032Z,4.50
2023-03-06T12:54:42.515Z,4.40
2023-03-06T12:57:12.483Z,4.40
2023-03-06T12:59:47.141Z,4.30
2023-03-06T13:03:07.173Z,4.30
2023-03-06T13:06:21.694Z,4.30
2023-03-06T13:09:16.258Z,4.20
2023-03-06T13:12:28.535Z,4.30
2023-03-06T13:15:01.333Z,4.40
2023-03-06T13:17:38.754Z,4.50
2023-03-06T13:20:41.464Z,4.50
2023-03-06T13:23:57.988Z,4.40
2023-03-06T13:26:54.026Z,4.20
2023-03-06T13:30:05.143Z,4.10
2023-03-06T13:32:36.331Z,4.10
2023-03-06T13:35:56.149Z,4.00
2023-03-06T13:38:57.405Z,3.90
2023-03-06T13:41:58.118Z,3.80
2023-03-06T13:44:52.220Z,3.90
2023-03-06T13:48:05.839Z,3.90
2023-03-06T13:50:39.733Z,3.90
2023-03-06T13:54:04.044Z,3.90
2023-03-06T13:57:14.302Z,3.80
2023-03-06T14:00:24.393Z,3.90
2023-03-06T14:03:28.732Z,4.00
2023-03-06T14:05:58.802Z,4.10
2023-03-06T14:08:33.046Z,4.00
2023-03-06T14:11:04.763Z,4.00
2023-03-06T14:13:46.886Z,4.00
2023-03-06T14:16:22.441Z,3.90
2023-03-06T14:18:53.102Z,4.00
2023-03-06T14:21:30.761Z,4.10
2023-03-06T14:24:03.216Z,4.10
2023-03-06T14:26:34.690Z,4.10
2023-03-06T14:29:04.906Z,4.10
2023-03-06T14:31:38.421Z,4.10
2023-03-06T14:34:09.953Z,4.00
2023-03-06T14:36:45.640Z,4.00
2023-03-06T14:39:21.707Z,4.00
2023-03-06T14:41:50.422Z,4.00
2023-03-06T14:44:21.743Z,4.00
2023-03-06T14:46:52.468Z,3.90
2023-03-06T14:49:23.828Z,4.00
2023-03-06T14:51:54.389Z,4.00
2023-03-06T14:54:30.133Z,4.00
2023-03-06T14:57:07.816Z,4.00
2023-03-06T14:59:44.124Z,4.00
2023-03-06T15:02:20.756Z,4.00
2023-03-06T15:04:53.667Z,4.00
2023-03-06T15:07:27.666Z,4.00
2023-03-06T15:09:57.671Z,4.10
2023-03-06T15:12:38.710Z,4.10
2023-03-06T15:15:32.495Z,4.20
2023-03-06T15:18:01.134Z,4.10
2023-03-06T15:20:42.919Z,4.00
2023-03-06T15:23:21.222Z,4.00
2023-03-06T15:26:00.136Z,3.90
2023-03-06T15:28:37.038Z,3.90
2023-03-06T15:31:22.141Z,3.90
2023-03-06T15:34:23.381Z,3.90
2023-03-06T15:36:55.599Z,3.80
2023-03-06T15:39:39.414Z,3.80
2023-03-06T15:42:24.944Z,3.90
2023-03-06T15:44:56.284Z,3.90
2023-03-06T15:47:25.474Z,3.70
2023-03-06T15:49:53.802Z,3.50
2023-03-06T15:52:23.125Z,3.40
2023-03-06T15:54:51.574Z,3.30
2023-03-06T15:57:25.926Z,3.20
2023-03-06T15:59:56.163Z,3.10
2023-03-06T16:02:25.280Z,3.10
2023-03-06T16:04:54.638Z,3.20
2023-03-06T16:07:22.772Z,3.20
2023-03-06T16:09:50.821Z,3.20
2023-03-06T16:12:22.905Z,3.20
2023-03-06T16:14:50.995Z,3.10
2023-03-06T16:17:19.597Z,3.10
2023-03-06T16:19:48.730Z,3.20
2023-03-06T16:22:16.771Z,3.20
2023-03-06T16:24:44.841Z,3.20
2023-03-06T16:27:19.181Z,3.30
2023-03-06T16:29:48.488Z,3.30
2023-03-06T16:32:16.487Z,3.30
2023-03-06T16:34:45.465Z,3.30
2023-03-06T16:37:14.743Z,3.20
2023-03-06T16:39:42.750Z,3.30
2023-03-06T16:42:11.404Z,3.20
2023-03-06T16:44:39.395Z,3.30
2023-03-06T16:47:11.716Z,3.30
2023-03-06T16:49:39.685Z,3.30
2023-03-06T16:52:09.224Z,3.20
2023-03-06T16:54:37.439Z,3.20
2023-03-06T16:57:05.488Z,3.20
2023-03-06T16:59:33.478Z,3.20
2023-03-06T17:02:01.531Z,3.10
2023-03-06T17:04:31.137Z,3.10
2023-03-06T17:06:59.280Z,3.10
2023-03-06T17:09:27.384Z,3.00
2023-03-06T17:11:55.389Z,3.00
2023-03-06T17:14:23.360Z,3.00
2023-03-06T17:16:51.291Z,3.00
2023-03-06T17:19:19.279Z,3.00
2023-03-06T17:21:48.585Z,3.00
2023-03-06T17:24:16.744Z,3.00
2023-03-06T17:26:46.851Z,3.00
2023-03-06T17:29:15.043Z,3.00
2023-03-06T17:31:43.306Z,3.00
2023-03-06T17:34:11.755Z,3.00
2023-03-06T17:36:39.865Z,3.00
2023-03-06T17:39:10.085Z,3.00
2023-03-06T17:41:38.334Z,3.00
2023-03-06T17:44:06.740Z,3.10
2023-03-06T17:46:35.452Z,3.00
2023-03-06T17:49:03.562Z,3.10
2023-03-06T17:51:31.676Z,3.00
2023-03-06T17:53:59.761Z,3.00
2023-03-06T17:56:29.912Z,3.00
2023-03-06T17:58:59.691Z,3.00
2023-03-06T18:01:29.949Z,3.10
2023-03-06T18:03:59.440Z,3.00
2023-03-06T18:06:30.110Z,3.00
2023-03-06T18:08:58.448Z,2.90
2023-03-06T18:11:28.070Z,3.00
2023-03-06T18:13:56.123Z,2.90
2023-03-06T18:16:27.655Z,2.90
2023-03-06T18:18:57.712Z,2.90
2023-03-06T18:21:26.521Z,2.90
2023-03-06T18:23:55.098Z,2.90
2023-03-06T18:26:26.003Z,2.90
2023-03-06T18:28:57.887Z,2.90
2023-03-06T18:31:28.760Z,2.90
2023-03-06T18:33:59.900Z,2.90
2023-03-06T18:36:30.834Z,2.90
2023-03-06T18:39:00.708Z,2.80
2023-03-06T18:41:28.885Z,2.70
2023-03-06T18:44:01.052Z,2.70
2023-03-06T18:46:33.444Z,2.70
2023-03-06T18:49:01.654Z,2.70
2023-03-06T18:51:30.816Z,2.70
2023-03-06T18:54:00.116Z,2.60
2023-03-06T18:56:28.552Z,2.70
2023-03-06T18:59:02.130Z,2.70
2023-03-06T19:01:30.786Z,2.60
2023-03-06T19:04:01.950Z,2.60
2023-03-06T19:06:30.613Z,2.70
2023-03-06T19:08:59.454Z,2.70
2023-03-06T19:11:28.215Z,2.70
2023-03-06T19:13:57.921Z,2.70
2023-03-06T19:16:29.505Z,2.70
2023-03-06T19:18:58.262Z,2.70
2023-03-06T19:21:28.402Z,2.70
2023-03-06T19:23:58.046Z,2.80
2023-03-06T19:26:26.995Z,2.80
2023-03-06T19:28:55.312Z,2.80
2023-03-06T19:31:30.571Z,2.80
2023-03-06T19:33:59.111Z,2.80
2023-03-06T19:36:33.680Z,2.90
2023-03-06T19:39:05.815Z,2.90
2023-03-06T19:41:35.117Z,2.80
2023-03-06T19:44:05.910Z,2.70
2023-03-06T19:46:36.191Z,2.70
2023-03-06T19:49:11.741Z,2.70
2023-03-06T19:51:41.120Z,2.70
2023-03-06T19:54:11.318Z,2.80
2023-03-06T19:56:39.346Z,2.80
2023-03-06T19:59:07.416Z,2.70
2023-03-06T20:01:38.561Z,2.70
2023-03-06T20:04:06.743Z,2.70
2023-03-06T20:06:36.674Z,2.70
2023-03-06T20:09:09.201Z,2.70
2023-03-06T20:11:39.631Z,2.70
2023-03-06T20:14:09.667Z,2.70
2023-03-06T20:16:39.663Z,2.70
2023-03-06T20:19:08.626Z,2.70
2023-03-06T20:21:37.876Z,2.70
2023-03-06T20:24:08.131Z,2.70
2023-03-06T20:26:38.037Z,2.70
2023-03-06T20:29:06.155Z,2.70
2023-03-06T20:31:34.359Z,2.70
2023-03-06T20:34:05.031Z,2.70
2023-03-06T20:36:36.719Z,2.70
2023-03-06T20:39:09.835Z,2.70
2023-03-06T20:41:38.039Z,2.70
2023-03-06T20:44:08.636Z,2.70
2023-03-06T20:46:37.290Z,2.80
2023-03-06T20:49:08.720Z,2.80
2023-03-06T20:51:39.349Z,2.70
2023-03-06T20:54:10.106Z,2.70
2023-03-06T20:56:39.686Z,2.70
2023-03-06T20:59:10.585Z,2.60
2023-03-06T21:01:41.984Z,2.60
2023-03-06T21:04:13.933Z,2.50
2023-03-06T21:06:46.503Z,2.50
2023-03-06T21:09:16.662Z,2.50
2023-03-06T21:11:45.595Z,2.60
2023-03-06T21:14:14.351Z,2.60
2023-03-06T21:16:43.460Z,2.60
2023-03-06T21:19:12.914Z,2.50
2023-03-06T21:21:40.935Z,2.50
2023-03-06T21:24:09.760Z,2.50
2023-03-06T21:26:38.145Z,2.40
2023-03-06T21:29:06.367Z,2.50
2023-03-06T21:31:34.556Z,2.40
2023-03-06T21:34:05.009Z,2.40
2023-03-06T21:36:35.334Z,2.40
2023-03-06T21:39:06.143Z,2.40
2023-03-06T21:41:34.860Z,2.40
2023-03-06T21:44:06.089Z,2.40
2023-03-06T21:46:34.935Z,2.30
2023-03-06T21:49:04.121Z,2.30
2023-03-06T21:51:32.583Z,2.30
2023-03-06T21:54:02.114Z,2.20
2023-03-06T21:56:30.181Z,2.30
2023-03-06T21:58:58.299Z,2.20
2023-03-06T22:01:29.191Z,2.20
2023-03-06T22:03:58.595Z,2.20
2023-03-06T22:06:30.012Z,2.30
2023-03-06T22:09:01.375Z,2.30
2023-03-06T22:11:31.274Z,2.30
2023-03-06T22:13:59.581Z,2.30
2023-03-06T22:16:27.720Z,2.30
2023-03-06T22:18:55.956Z,2.30
2023-03-06T22:21:24.861Z,2.40
2023-03-06T22:23:54.417Z,2.40
2023-03-06T22:26:24.306Z,2.40
2023-03-06T22:28:52.381Z,2.30
2023-03-06T22:31:23.826Z,2.40
2023-03-06T22:33:53.054Z,2.40
2023-03-06T22:36:22.594Z,2.40
2023-03-06T22:38:54.350Z,2.40
2023-03-06T22:41:25.648Z,2.30
2023-03-06T22:43:56.343Z,2.30
2023-03-06T22:46:25.219Z,2.30
2023-03-06T22:48:53.362Z,2.30
2023-03-06T22:51:22.406Z,2.30
2023-03-06T22:53:50.722Z,2.30
2023-03-06T22:56:21.596Z,2.30
2023-03-06T22:58:51.391Z,2.30
2023-03-06T23:01:22.533Z,2.30
2023-03-06T23:03:53.658Z,2.30
2023-03-06T23:06:25.679Z,2.40
2023-03-06T23:08:56.707Z,2.40
2023-03-06T23:11:29.752Z,2.40
2023-03-06T23:14:20.278Z,2.40
2023-03-06T23:17:07.448Z,2.50
2023-03-06T23:19:54.324Z,2.50
2023-03-06T23:22:41.066Z,2.50
2023-03-06T23:25:27.888Z,2.50
2023-03-06T23:27:55.908Z,2.60
2023-03-06T23:30:25.250Z,2.50
2023-03-06T23:32:53.302Z,2.60
2023-03-06T23:35:21.383Z,2.60
2023-03-06T23:37:49.430Z,2.60
2023-03-06T23:40:18.659Z,2.70
2023-03-06T23:42:46.755Z,2.70
2023-03-06T23:45:14.851Z,2.60
2023-03-06T23:47:44.114Z,2.70
2023-03-06T23:50:13.991Z,2.60
2023-03-06T23:52:42.037Z,2.60
2023-03-06T23:55:10.734Z,2.60
2023-03-06T23:57:38.944Z,2.60
